sensor_id;sensor_type;location;lat;lon;timestamp;temperature;humidity
1994;DHT22;998;49.906;10.908;2024-03-07T00:01:19;7.20;99.90
1994;DHT22;998;49.906;10.908;2024-03-07T00:03:49;7.30;99.90
1994;DHT22;998;49.906;10.908;2024-03-07T00:06:17;7.30;99.90
1994;DHT22;998;49.906;10.908;2024-03-07T00:08:44;7.20;99.90
1994;DHT22;998;49.906;10.908;2024-03-07T00:11:12;7.20;99.90
1994;DHT22;998;49.906;10.908;2024-03-07T00:13:39;7.10;99.90
1994;DHT22;998;49.906;10.908;2024-03-07T00:16:06;7.20;99.90
1994;DHT22;998;49.906;10.908;2024-03-07T00:18:35;7.10;99.90
1994;DHT22;998;49.906;10.908;2024-03-07T00:21:04;7.20;99.90
1994;DHT22;998;49.906;10.908;2024-03-07T00:23:32;7.20;99.90
1994;DHT22;998;49.906;10.908;2024-03-07T00:25:59;7.10;99.90
1994;DHT22;998;49.906;10.908;2024-03-07T00:28:27;7.10;99.90
1994;DHT22;998;49.906;10.908;2024-03-07T00:30:58;7.10;99.90
1994;DHT22;998;49.906;10.908;2024-03-07T00:33:25;7.10;99.90
1994;DHT22;998;49.906;10.908;2024-03-07T00:35:52;7.00;99.90
1994;DHT22;998;49.906;10.908;2024-03-07T00:41:07;7.20;99.90
1994;DHT22;998;49.906;10.908;2024-03-07T00:43:35;6.90;99.90
1994;DHT22;998;49.906;10.908;2024-03-07T00:46:03;7.10;99.90
1994;DHT22;998;49.906;10.908;2024-03-07T00:48:32;7.20;99.90
1994;DHT22;998;49.906;10.908;2024-03-07T00:50:59;7.10;99.90
1994;DHT22;998;49.906;10.908;2024-03-07T00:53:28;7.00;99.90
1994;DHT22;998;49.906;10.908;2024-03-07T00:55:55;7.10;99.90
1994;DHT22;998;49.906;10.908;2024-03-07T00:58:23;7.10;99.90
1994;DHT22;998;49.906;10.908;2024-03-07T01:00:50;7.20;99.90
1994;DHT22;998;49.906;10.908;2024-03-07T01:03:17;7.10;99.90
1994;DHT22;998;49.906;10.908;2024-03-07T01:05:45;7.20;99.90
1994;DHT22;998;49.906;10.908;2024-03-07T01:08:13;7.00;99.90
1994;DHT22;998;49.906;10.908;2024-03-07T01:10:41;7.40;99.90
1994;DHT22;998;49.906;10.908;2024-03-07T01:13:09;7.00;99.90
1994;DHT22;998;49.906;10.908;2024-03-07T01:15:45;7.00;99.90
1994;DHT22;998;49.906;10.908;2024-03-07T01:18:12;7.00;99.90
1994;DHT22;998;49.906;10.908;2024-03-07T01:20:39;7.00;99.90
1994;DHT22;998;49.906;10.908;2024-03-07T01:23:06;7.10;99.90
1994;DHT22;998;49.906;10.908;2024-03-07T01:25:34;7.00;99.90
1994;DHT22;998;49.906;10.908;2024-03-07T01:28:03;7.20;99.90
1994;DHT22;998;49.906;10.908;2024-03-07T01:30:31;6.90;99.90
1994;DHT22;998;49.906;10.908;2024-03-07T01:32:58;6.90;99.90
1994;DHT22;998;49.906;10.908;2024-03-07T01:35:25;6.90;99.90
1994;DHT22;998;49.906;10.908;2024-03-07T01:37:59;6.80;99.90
1994;DHT22;998;49.906;10.908;2024-03-07T01:40:30;6.90;99.90
1994;DHT22;998;49.906;10.908;2024-03-07T01:42:57;6.70;99.90
1994;DHT22;998;49.906;10.908;2024-03-07T01:45:26;6.60;99.90
1994;DHT22;998;49.906;10.908;2024-03-07T01:47:53;6.90;99.90
1994;DHT22;998;49.906;10.908;2024-03-07T01:50:21;6.80;99.90
1994;DHT22;998;49.906;10.908;2024-03-07T01:53:04;7.00;99.90
1994;DHT22;998;49.906;10.908;2024-03-07T01:55:33;6.70;99.90
1994;DHT22;998;49.906;10.908;2024-03-07T01:58:02;7.00;99.90
1994;DHT22;998;49.906;10.908;2024-03-07T02:00:31;6.80;99.90
1994;DHT22;998;49.906;10.908;2024-03-07T02:02:58;6.80;99.90
1994;DHT22;998;49.906;10.908;2024-03-07T02:05:26;6.80;99.90
1994;DHT22;998;49.906;10.908;2024-03-07T02:07:59;6.80;99.90
1994;DHT22;998;49.906;10.908;2024-03-07T02:10:27;7.00;99.90
1994;DHT22;998;49.906;10.908;2024-03-07T02:12:54;6.70;99.90
1994;DHT22;998;49.906;10.908;2024-03-07T02:15:39;6.70;99.90
1994;DHT22;998;49.906;10.908;2024-03-07T02:18:08;6.60;99.90
1994;DHT22;998;49.906;10.908;2024-03-07T02:20:36;6.70;99.90
1994;DHT22;998;49.906;10.908;2024-03-07T02:23:13;6.70;99.90
1994;DHT22;998;49.906;10.908;2024-03-07T02:25:40;6.80;99.90
1994;DHT22;998;49.906;10.908;2024-03-07T02:28:08;7.40;99.90
1994;DHT22;998;49.906;10.908;2024-03-07T02:30:35;7.30;99.90
1994;DHT22;998;49.906;10.908;2024-03-07T02:33:03;6.70;99.90
1994;DHT22;998;49.906;10.908;2024-03-07T02:35:33;6.60;99.90
1994;DHT22;998;49.906;10.908;2024-03-07T02:38:02;6.60;99.90
1994;DHT22;998;49.906;10.908;2024-03-07T02:40:31;6.60;99.90
1994;DHT22;998;49.906;10.908;2024-03-07T02:42:59;6.60;99.90
1994;DHT22;998;49.906;10.908;2024-03-07T02:45:26;6.50;99.90
1994;DHT22;998;49.906;10.908;2024-03-07T02:47:53;6.40;99.90
1994;DHT22;998;49.906;10.908;2024-03-07T02:53:03;6.40;99.90
1994;DHT22;998;49.906;10.908;2024-03-07T02:55:36;6.40;99.90
1994;DHT22;998;49.906;10.908;2024-03-07T02:58:03;6.50;99.90
1994;DHT22;998;49.906;10.908;2024-03-07T03:00:32;6.10;99.90
1994;DHT22;998;49.906;10.908;2024-03-07T03:03:00;6.30;99.90
1994;DHT22;998;49.906;10.908;2024-03-07T03:05:27;6.50;99.90
1994;DHT22;998;49.906;10.908;2024-03-07T03:07:55;6.10;99.90
1994;DHT22;998;49.906;10.908;2024-03-07T03:10:23;6.10;99.90
1994;DHT22;998;49.906;10.908;2024-03-07T03:12:54;6.10;99.90
1994;DHT22;998;49.906;10.908;2024-03-07T03:15:23;6.10;99.90
1994;DHT22;998;49.906;10.908;2024-03-07T03:17:51;6.10;99.90
1994;DHT22;998;49.906;10.908;2024-03-07T03:20:19;6.00;99.90
1994;DHT22;998;49.906;10.908;2024-03-07T03:22:52;6.00;99.90
1994;DHT22;998;49.906;10.908;2024-03-07T03:25:20;5.90;99.90
1994;DHT22;998;49.906;10.908;2024-03-07T03:27:49;5.90;99.90
1994;DHT22;998;49.906;10.908;2024-03-07T03:30:26;5.80;99.90
1994;DHT22;998;49.906;10.908;2024-03-07T03:32:53;5.80;99.90
1994;DHT22;998;49.906;10.908;2024-03-07T03:35:21;5.80;99.90
1994;DHT22;998;49.906;10.908;2024-03-07T03:37:48;5.80;99.90
1994;DHT22;998;49.906;10.908;2024-03-07T03:40:16;5.70;99.90
1994;DHT22;998;49.906;10.908;2024-03-07T03:42:43;5.70;99.90
1994;DHT22;998;49.906;10.908;2024-03-07T03:45:10;5.70;99.90
1994;DHT22;998;49.906;10.908;2024-03-07T03:47:42;5.70;99.90
1994;DHT22;998;49.906;10.908;2024-03-07T03:50:11;5.50;99.90
1994;DHT22;998;49.906;10.908;2024-03-07T03:52:38;5.40;99.90
1994;DHT22;998;49.906;10.908;2024-03-07T03:55:07;5.30;99.90
1994;DHT22;998;49.906;10.908;2024-03-07T03:57:36;5.40;99.90
1994;DHT22;998;49.906;10.908;2024-03-07T04:00:05;5.30;99.90
1994;DHT22;998;49.906;10.908;2024-03-07T04:02:40;5.30;99.90
1994;DHT22;998;49.906;10.908;2024-03-07T04:05:09;5.30;99.90
1994;DHT22;998;49.906;10.908;2024-03-07T04:07:37;5.30;99.90
1994;DHT22;998;49.906;10.908;2024-03-07T04:10:06;5.30;99.90
1994;DHT22;998;49.906;10.908;2024-03-07T04:12:34;5.30;99.90
1994;DHT22;998;49.906;10.908;2024-03-07T04:15:03;5.30;99.90
1994;DHT22;998;49.906;10.908;2024-03-07T04:17:31;5.20;99.90
1994;DHT22;998;49.906;10.908;2024-03-07T04:20:01;5.20;99.90
1994;DHT22;998;49.906;10.908;2024-03-07T04:22:31;5.10;99.90
1994;DHT22;998;49.906;10.908;2024-03-07T04:24:58;4.90;99.90
1994;DHT22;998;49.906;10.908;2024-03-07T04:27:27;5.00;99.90
1994;DHT22;998;49.906;10.908;2024-03-07T04:29:54;5.10;99.90
1994;DHT22;998;49.906;10.908;2024-03-07T04:32:22;5.00;99.90
1994;DHT22;998;49.906;10.908;2024-03-07T04:34:49;5.00;99.90
1994;DHT22;998;49.906;10.908;2024-03-07T04:37:18;4.90;99.90
1994;DHT22;998;49.906;10.908;2024-03-07T04:39:45;4.90;99.90
1994;DHT22;998;49.906;10.908;2024-03-07T04:42:13;4.90;99.90
1994;DHT22;998;49.906;10.908;2024-03-07T04:44:40;4.80;99.90
1994;DHT22;998;49.906;10.908;2024-03-07T04:47:07;4.80;99.90
1994;DHT22;998;49.906;10.908;2024-03-07T04:49:35;5.20;99.90
1994;DHT22;998;49.906;10.908;2024-03-07T04:52:03;4.70;99.90
1994;DHT22;998;49.906;10.908;2024-03-07T04:54:33;4.70;99.90
1994;DHT22;998;49.906;10.908;2024-03-07T04:57:01;4.70;99.90
1994;DHT22;998;49.906;10.908;2024-03-07T04:59:29;5.50;99.90
1994;DHT22;998;49.906;10.908;2024-03-07T05:01:57;4.60;99.90
1994;DHT22;998;49.906;10.908;2024-03-07T05:04:24;4.60;99.90
1994;DHT22;998;49.906;10.908;2024-03-07T05:06:55;4.70;99.90
1994;DHT22;998;49.906;10.908;2024-03-07T05:09:23;4.80;99.90
1994;DHT22;998;49.906;10.908;2024-03-07T05:11:56;4.70;99.90
1994;DHT22;998;49.906;10.908;2024-03-07T05:14:23;4.60;99.90
1994;DHT22;998;49.906;10.908;2024-03-07T05:16:51;4.80;99.90
1994;DHT22;998;49.906;10.908;2024-03-07T05:19:31;4.70;99.90
1994;DHT22;998;49.906;10.908;2024-03-07T05:21:59;5.00;99.90
1994;DHT22;998;49.906;10.908;2024-03-07T05:24:26;4.70;99.90
1994;DHT22;998;49.906;10.908;2024-03-07T05:26:55;4.70;99.90
1994;DHT22;998;49.906;10.908;2024-03-07T05:29:25;4.40;99.90
1994;DHT22;998;49.906;10.908;2024-03-07T05:31:53;4.80;99.90
1994;DHT22;998;49.906;10.908;2024-03-07T05:34:23;4.60;99.90
1994;DHT22;998;49.906;10.908;2024-03-07T05:36:54;4.60;99.90
1994;DHT22;998;49.906;10.908;2024-03-07T05:39:21;4.50;99.90
1994;DHT22;998;49.906;10.908;2024-03-07T05:41:50;4.40;99.90
1994;DHT22;998;49.906;10.908;2024-03-07T05:44:18;4.40;99.90
1994;DHT22;998;49.906;10.908;2024-03-07T05:46:46;4.40;99.90
1994;DHT22;998;49.906;10.908;2024-03-07T05:49:14;4.40;99.90
1994;DHT22;998;49.906;10.908;2024-03-07T05:51:43;4.40;99.90
1994;DHT22;998;49.906;10.908;2024-03-07T05:54:11;4.60;99.90
1994;DHT22;998;49.906;10.908;2024-03-07T05:56:39;4.70;99.90
1994;DHT22;998;49.906;10.908;2024-03-07T05:59:05;4.50;99.90
1994;DHT22;998;49.906;10.908;2024-03-07T06:01:37;4.40;99.90
1994;DHT22;998;49.906;10.908;2024-03-07T06:04:05;4.50;99.90
1994;DHT22;998;49.906;10.908;2024-03-07T06:06:34;4.50;99.90
1994;DHT22;998;49.906;10.908;2024-03-07T06:09:03;4.60;99.90
1994;DHT22;998;49.906;10.908;2024-03-07T06:11:33;4.40;99.90
1994;DHT22;998;49.906;10.908;2024-03-07T06:14:01;4.20;99.90
1994;DHT22;998;49.906;10.908;2024-03-07T06:16:30;4.40;99.90
1994;DHT22;998;49.906;10.908;2024-03-07T06:19:00;4.40;99.90
1994;DHT22;998;49.906;10.908;2024-03-07T06:21:29;4.40;99.90
1994;DHT22;998;49.906;10.908;2024-03-07T06:23:57;4.40;99.90
1994;DHT22;998;49.906;10.908;2024-03-07T06:26:26;4.40;99.90
1994;DHT22;998;49.906;10.908;2024-03-07T06:29:03;4.40;99.90
1994;DHT22;998;49.906;10.908;2024-03-07T06:31:32;4.40;99.90
1994;DHT22;998;49.906;10.908;2024-03-07T06:34:02;4.50;99.90
1994;DHT22;998;49.906;10.908;2024-03-07T06:36:29;4.50;99.90
1994;DHT22;998;49.906;10.908;2024-03-07T06:38:57;4.50;99.90
1994;DHT22;998;49.906;10.908;2024-03-07T06:41:24;4.60;99.90
1994;DHT22;998;49.906;10.908;2024-03-07T06:43:52;4.60;99.90
1994;DHT22;998;49.906;10.908;2024-03-07T06:46:21;4.60;99.90
1994;DHT22;998;49.906;10.908;2024-03-07T06:48:49;4.70;99.90
1994;DHT22;998;49.906;10.908;2024-03-07T06:51:18;4.50;99.90
1994;DHT22;998;49.906;10.908;2024-03-07T06:53:46;4.60;99.90
1994;DHT22;998;49.906;10.908;2024-03-07T06:56:13;4.80;99.90
1994;DHT22;998;49.906;10.908;2024-03-07T06:58:42;4.90;99.90
1994;DHT22;998;49.906;10.908;2024-03-07T07:01:10;5.00;99.90
1994;DHT22;998;49.906;10.908;2024-03-07T07:03:41;4.90;99.90
1994;DHT22;998;49.906;10.908;2024-03-07T07:06:10;4.90;99.90
1994;DHT22;998;49.906;10.908;2024-03-07T07:08:39;4.80;99.90
1994;DHT22;998;49.906;10.908;2024-03-07T07:11:13;5.00;99.90
1994;DHT22;998;49.906;10.908;2024-03-07T07:13:41;5.00;99.90
1994;DHT22;998;49.906;10.908;2024-03-07T07:16:08;5.00;99.90
1994;DHT22;998;49.906;10.908;2024-03-07T07:18:35;5.10;99.90
1994;DHT22;998;49.906;10.908;2024-03-07T07:21:03;5.00;99.90
1994;DHT22;998;49.906;10.908;2024-03-07T07:23:31;5.00;99.90
1994;DHT22;998;49.906;10.908;2024-03-07T07:26:00;5.10;99.90
1994;DHT22;998;49.906;10.908;2024-03-07T07:28:28;5.00;99.90
1994;DHT22;998;49.906;10.908;2024-03-07T07:30:56;5.10;99.90
1994;DHT22;998;49.906;10.908;2024-03-07T07:33:23;5.20;99.90
1994;DHT22;998;49.906;10.908;2024-03-07T07:35:51;5.20;99.90
1994;DHT22;998;49.906;10.908;2024-03-07T07:38:18;5.20;99.90
1994;DHT22;998;49.906;10.908;2024-03-07T07:40:46;5.00;99.90
1994;DHT22;998;49.906;10.908;2024-03-07T07:43:15;5.30;99.90
1994;DHT22;998;49.906;10.908;2024-03-07T07:45:42;5.40;99.90
1994;DHT22;998;49.906;10.908;2024-03-07T07:48:09;5.40;99.90
1994;DHT22;998;49.906;10.908;2024-03-07T07:50:37;5.50;99.90
1994;DHT22;998;49.906;10.908;2024-03-07T07:53:05;5.50;99.90
1994;DHT22;998;49.906;10.908;2024-03-07T07:55:35;5.60;99.90
1994;DHT22;998;49.906;10.908;2024-03-07T07:58:03;5.90;99.90
1994;DHT22;998;49.906;10.908;2024-03-07T08:00:32;5.70;99.90
1994;DHT22;998;49.906;10.908;2024-03-07T08:03:03;5.80;99.90
1994;DHT22;998;49.906;10.908;2024-03-07T08:05:33;5.90;99.90
1994;DHT22;998;49.906;10.908;2024-03-07T08:08:03;6.00;99.90
1994;DHT22;998;49.906;10.908;2024-03-07T08:10:33;6.00;99.90
1994;DHT22;998;49.906;10.908;2024-03-07T08:13:01;6.10;99.90
1994;DHT22;998;49.906;10.908;2024-03-07T08:15:31;6.10;99.90
1994;DHT22;998;49.906;10.908;2024-03-07T08:17:59;6.20;99.90
1994;DHT22;998;49.906;10.908;2024-03-07T08:20:27;6.20;99.90
1994;DHT22;998;49.906;10.908;2024-03-07T08:22:56;6.30;99.90
1994;DHT22;998;49.906;10.908;2024-03-07T08:25:26;6.30;99.90
1994;DHT22;998;49.906;10.908;2024-03-07T08:27:55;6.30;99.90
1994;DHT22;998;49.906;10.908;2024-03-07T08:30:24;6.30;99.90
1994;DHT22;998;49.906;10.908;2024-03-07T08:32:55;6.40;99.90
1994;DHT22;998;49.906;10.908;2024-03-07T08:35:24;6.40;99.90
1994;DHT22;998;49.906;10.908;2024-03-07T08:37:53;6.50;99.90
1994;DHT22;998;49.906;10.908;2024-03-07T08:40:22;6.60;99.90
1994;DHT22;998;49.906;10.908;2024-03-07T08:42:51;6.60;99.90
1994;DHT22;998;49.906;10.908;2024-03-07T08:45:20;6.50;99.90
1994;DHT22;998;49.906;10.908;2024-03-07T08:47:49;6.60;99.90
1994;DHT22;998;49.906;10.908;2024-03-07T08:50:18;6.60;99.90
1994;DHT22;998;49.906;10.908;2024-03-07T08:52:47;6.70;99.90
1994;DHT22;998;49.906;10.908;2024-03-07T08:55:15;6.70;99.90
1994;DHT22;998;49.906;10.908;2024-03-07T08:57:43;6.70;99.90
1994;DHT22;998;49.906;10.908;2024-03-07T09:00:13;6.70;99.90
1994;DHT22;998;49.906;10.908;2024-03-07T09:02:48;6.70;99.90
1994;DHT22;998;49.906;10.908;2024-03-07T09:05:19;6.80;99.90
1994;DHT22;998;49.906;10.908;2024-03-07T09:07:48;6.80;99.90
1994;DHT22;998;49.906;10.908;2024-03-07T09:10:16;6.80;99.90
1994;DHT22;998;49.906;10.908;2024-03-07T09:12:44;6.90;99.90
1994;DHT22;998;49.906;10.908;2024-03-07T09:15:12;7.00;99.90
1994;DHT22;998;49.906;10.908;2024-03-07T09:17:42;7.10;99.90
1994;DHT22;998;49.906;10.908;2024-03-07T09:20:10;7.10;99.90
1994;DHT22;998;49.906;10.908;2024-03-07T09:22:41;7.10;99.90
1994;DHT22;998;49.906;10.908;2024-03-07T09:25:09;7.00;99.90
1994;DHT22;998;49.906;10.908;2024-03-07T09:27:38;7.30;99.90
1994;DHT22;998;49.906;10.908;2024-03-07T09:30:07;7.20;99.90
1994;DHT22;998;49.906;10.908;2024-03-07T09:32:38;7.30;99.90
1994;DHT22;998;49.906;10.908;2024-03-07T09:35:07;7.20;99.90
1994;DHT22;998;49.906;10.908;2024-03-07T09:37:38;7.40;99.90
1994;DHT22;998;49.906;10.908;2024-03-07T09:40:09;7.50;99.90
1994;DHT22;998;49.906;10.908;2024-03-07T09:42:42;7.30;99.90
1994;DHT22;998;49.906;10.908;2024-03-07T09:45:14;7.50;99.90
1994;DHT22;998;49.906;10.908;2024-03-07T09:47:45;7.70;99.90
1994;DHT22;998;49.906;10.908;2024-03-07T09:50:16;7.70;99.90
1994;DHT22;998;49.906;10.908;2024-03-07T09:52:48;7.80;99.90
1994;DHT22;998;49.906;10.908;2024-03-07T09:55:18;7.90;99.90
1994;DHT22;998;49.906;10.908;2024-03-07T09:57:48;7.90;99.90
1994;DHT22;998;49.906;10.908;2024-03-07T10:00:17;8.00;99.90
1994;DHT22;998;49.906;10.908;2024-03-07T10:02:53;7.90;99.90
1994;DHT22;998;49.906;10.908;2024-03-07T10:05:23;7.80;99.90
1994;DHT22;998;49.906;10.908;2024-03-07T10:07:51;7.90;99.90
1994;DHT22;998;49.906;10.908;2024-03-07T10:10:27;7.90;99.90
1994;DHT22;998;49.906;10.908;2024-03-07T10:12:56;7.80;99.90
1994;DHT22;998;49.906;10.908;2024-03-07T10:15:28;7.70;99.90
1994;DHT22;998;49.906;10.908;2024-03-07T10:17:56;7.60;99.90
1994;DHT22;998;49.906;10.908;2024-03-07T10:20:23;8.00;99.90
1994;DHT22;998;49.906;10.908;2024-03-07T10:22:51;7.90;99.90
1994;DHT22;998;49.906;10.908;2024-03-07T10:25:19;8.10;99.90
1994;DHT22;998;49.906;10.908;2024-03-07T10:27:52;8.20;99.90
1994;DHT22;998;49.906;10.908;2024-03-07T10:30:20;8.10;99.90
1994;DHT22;998;49.906;10.908;2024-03-07T10:32:48;8.30;99.90
1994;DHT22;998;49.906;10.908;2024-03-07T10:35:20;8.20;99.90
1994;DHT22;998;49.906;10.908;2024-03-07T10:37:50;8.30;99.90
1994;DHT22;998;49.906;10.908;2024-03-07T10:40:19;8.30;99.90
1994;DHT22;998;49.906;10.908;2024-03-07T10:42:48;8.40;99.90
1994;DHT22;998;49.906;10.908;2024-03-07T10:45:20;8.30;99.90
1994;DHT22;998;49.906;10.908;2024-03-07T10:47:53;8.40;99.90
1994;DHT22;998;49.906;10.908;2024-03-07T10:50:37;8.30;99.90
1994;DHT22;998;49.906;10.908;2024-03-07T10:53:13;8.30;99.90
1994;DHT22;998;49.906;10.908;2024-03-07T10:55:51;8.20;99.90
1994;DHT22;998;49.906;10.908;2024-03-07T10:58:40;8.10;99.90
1994;DHT22;998;49.906;10.908;2024-03-07T11:01:11;8.10;99.90
1994;DHT22;998;49.906;10.908;2024-03-07T11:03:40;8.10;99.90
1994;DHT22;998;49.906;10.908;2024-03-07T11:06:08;8.10;99.90
1994;DHT22;998;49.906;10.908;2024-03-07T11:08:38;8.10;99.90
1994;DHT22;998;49.906;10.908;2024-03-07T11:11:08;8.20;99.90
1994;DHT22;998;49.906;10.908;2024-03-07T11:13:38;8.20;99.90
1994;DHT22;998;49.906;10.908;2024-03-07T11:16:06;8.10;99.90
1994;DHT22;998;49.906;10.908;2024-03-07T11:18:37;8.20;99.90
1994;DHT22;998;49.906;10.908;2024-03-07T11:21:04;8.10;99.90
1994;DHT22;998;49.906;10.908;2024-03-07T11:23:33;8.30;99.90
1994;DHT22;998;49.906;10.908;2024-03-07T11:26:05;8.20;99.90
1994;DHT22;998;49.906;10.908;2024-03-07T11:28:33;8.30;99.90
1994;DHT22;998;49.906;10.908;2024-03-07T11:31:12;8.30;99.90
1994;DHT22;998;49.906;10.908;2024-03-07T11:33:41;8.10;99.90
1994;DHT22;998;49.906;10.908;2024-03-07T11:36:10;8.00;99.90
1994;DHT22;998;49.906;10.908;2024-03-07T11:38:38;8.20;99.90
1994;DHT22;998;49.906;10.908;2024-03-07T11:41:11;8.30;99.90
1994;DHT22;998;49.906;10.908;2024-03-07T11:43:40;8.30;99.90
1994;DHT22;998;49.906;10.908;2024-03-07T11:46:08;8.30;99.90
1994;DHT22;998;49.906;10.908;2024-03-07T11:48:41;8.30;99.90
1994;DHT22;998;49.906;10.908;2024-03-07T11:51:11;8.30;99.90
1994;DHT22;998;49.906;10.908;2024-03-07T11:53:39;8.40;99.90
1994;DHT22;998;49.906;10.908;2024-03-07T11:56:07;8.10;99.90
1994;DHT22;998;49.906;10.908;2024-03-07T11:58:43;8.40;99.90
1994;DHT22;998;49.906;10.908;2024-03-07T12:01:11;8.40;99.90
1994;DHT22;998;49.906;10.908;2024-03-07T12:03:41;8.40;99.90
1994;DHT22;998;49.906;10.908;2024-03-07T12:06:09;8.30;99.90
1994;DHT22;998;49.906;10.908;2024-03-07T12:08:38;8.20;99.90
1994;DHT22;998;49.906;10.908;2024-03-07T12:11:07;8.20;99.90
1994;DHT22;998;49.906;10.908;2024-03-07T12:13:38;8.30;99.90
1994;DHT22;998;49.906;10.908;2024-03-07T12:16:06;8.30;99.90
1994;DHT22;998;49.906;10.908;2024-03-07T12:18:35;8.20;99.90
1994;DHT22;998;49.906;10.908;2024-03-07T12:21:05;8.10;99.90
1994;DHT22;998;49.906;10.908;2024-03-07T12:23:34;8.30;99.90
1994;DHT22;998;49.906;10.908;2024-03-07T12:26:06;8.50;99.90
1994;DHT22;998;49.906;10.908;2024-03-07T12:28:33;8.40;99.90
1994;DHT22;998;49.906;10.908;2024-03-07T12:31:00;8.30;99.90
1994;DHT22;998;49.906;10.908;2024-03-07T12:33:30;8.40;99.90
1994;DHT22;998;49.906;10.908;2024-03-07T12:36:07;8.40;99.90
1994;DHT22;998;49.906;10.908;2024-03-07T12:38:37;8.30;99.90
1994;DHT22;998;49.906;10.908;2024-03-07T12:41:07;8.40;99.90
1994;DHT22;998;49.906;10.908;2024-03-07T12:43:40;8.40;99.90
1994;DHT22;998;49.906;10.908;2024-03-07T12:46:11;8.30;99.90
1994;DHT22;998;49.906;10.908;2024-03-07T12:48:39;8.30;99.90
1994;DHT22;998;49.906;10.908;2024-03-07T12:51:09;8.40;99.90
1994;DHT22;998;49.906;10.908;2024-03-07T12:53:42;8.40;99.90
1994;DHT22;998;49.906;10.908;2024-03-07T12:56:10;8.30;99.90
1994;DHT22;998;49.906;10.908;2024-03-07T12:58:42;8.40;99.90
1994;DHT22;998;49.906;10.908;2024-03-07T13:01:11;8.40;99.90
1994;DHT22;998;49.906;10.908;2024-03-07T13:03:39;8.40;99.90
1994;DHT22;998;49.906;10.908;2024-03-07T13:06:10;8.40;99.90
1994;DHT22;998;49.906;10.908;2024-03-07T13:08:37;8.70;99.90
1994;DHT22;998;49.906;10.908;2024-03-07T13:11:11;8.40;99.90
1994;DHT22;998;49.906;10.908;2024-03-07T13:13:38;8.40;99.90
1994;DHT22;998;49.906;10.908;2024-03-07T13:16:06;8.40;99.90
1994;DHT22;998;49.906;10.908;2024-03-07T13:18:35;8.40;99.90
1994;DHT22;998;49.906;10.908;2024-03-07T13:21:03;8.40;99.90
1994;DHT22;998;49.906;10.908;2024-03-07T13:23:33;8.40;99.90
1994;DHT22;998;49.906;10.908;2024-03-07T13:26:02;8.40;99.90
1994;DHT22;998;49.906;10.908;2024-03-07T13:28:34;8.40;99.90
1994;DHT22;998;49.906;10.908;2024-03-07T13:31:02;8.60;99.90
1994;DHT22;998;49.906;10.908;2024-03-07T13:33:29;8.40;99.90
1994;DHT22;998;49.906;10.908;2024-03-07T13:35:56;8.30;99.90
1994;DHT22;998;49.906;10.908;2024-03-07T13:38:26;8.40;99.90
1994;DHT22;998;49.906;10.908;2024-03-07T13:40:54;8.40;99.90
1994;DHT22;998;49.906;10.908;2024-03-07T13:43:23;8.70;99.90
1994;DHT22;998;49.906;10.908;2024-03-07T13:45:50;8.30;99.90
1994;DHT22;998;49.906;10.908;2024-03-07T13:48:18;8.40;99.90
1994;DHT22;998;49.906;10.908;2024-03-07T13:50:46;8.40;99.90
1994;DHT22;998;49.906;10.908;2024-03-07T13:53:14;8.30;99.90
1994;DHT22;998;49.906;10.908;2024-03-07T13:55:59;9.30;99.90
1994;DHT22;998;49.906;10.908;2024-03-07T13:58:58;8.40;99.90
1994;DHT22;998;49.906;10.908;2024-03-07T14:01:41;8.40;99.90
1994;DHT22;998;49.906;10.908;2024-03-07T14:04:39;8.20;99.90
1994;DHT22;998;49.906;10.908;2024-03-07T14:07:29;8.30;99.90
1994;DHT22;998;49.906;10.908;2024-03-07T14:10:30;8.10;99.90
1994;DHT22;998;49.906;10.908;2024-03-07T14:13:34;8.80;99.90
1994;DHT22;998;49.906;10.908;2024-03-07T14:16:43;8.30;99.90
1994;DHT22;998;49.906;10.908;2024-03-07T14:19:43;8.40;99.90
1994;DHT22;998;49.906;10.908;2024-03-07T14:22:34;8.30;99.90
1994;DHT22;998;49.906;10.908;2024-03-07T14:25:29;8.10;99.90
1994;DHT22;998;49.906;10.908;2024-03-07T14:28:33;8.30;99.90
1994;DHT22;998;49.906;10.908;2024-03-07T14:31:06;8.30;99.90
1994;DHT22;998;49.906;10.908;2024-03-07T14:33:50;8.30;99.90
1994;DHT22;998;49.906;10.908;2024-03-07T14:36:32;8.30;99.90
1994;DHT22;998;49.906;10.908;2024-03-07T14:39:02;8.10;99.90
1994;DHT22;998;49.906;10.908;2024-03-07T14:41:43;8.30;99.90
1994;DHT22;998;49.906;10.908;2024-03-07T14:44:14;8.30;99.90
1994;DHT22;998;49.906;10.908;2024-03-07T14:46:43;8.50;99.90
1994;DHT22;998;49.906;10.908;2024-03-07T14:49:18;8.30;99.90
1994;DHT22;998;49.906;10.908;2024-03-07T14:51:47;8.30;99.90
1994;DHT22;998;49.906;10.908;2024-03-07T14:54:16;8.30;99.90
1994;DHT22;998;49.906;10.908;2024-03-07T14:56:43;8.30;99.90
1994;DHT22;998;49.906;10.908;2024-03-07T14:59:10;8.30;99.90
1994;DHT22;998;49.906;10.908;2024-03-07T15:01:38;8.20;99.90
1994;DHT22;998;49.906;10.908;2024-03-07T15:04:09;8.20;99.90
1994;DHT22;998;49.906;10.908;2024-03-07T15:06:38;8.20;99.90
1994;DHT22;998;49.906;10.908;2024-03-07T15:09:05;8.20;99.90
1994;DHT22;998;49.906;10.908;2024-03-07T15:11:36;8.20;99.90
1994;DHT22;998;49.906;10.908;2024-03-07T15:14:06;8.20;99.90
1994;DHT22;998;49.906;10.908;2024-03-07T15:16:35;8.20;99.90
1994;DHT22;998;49.906;10.908;2024-03-07T15:19:04;8.20;99.90
1994;DHT22;998;49.906;10.908;2024-03-07T15:21:35;8.20;99.90
1994;DHT22;998;49.906;10.908;2024-03-07T15:24:03;8.10;99.90
1994;DHT22;998;49.906;10.908;2024-03-07T15:26:39;8.20;99.90
1994;DHT22;998;49.906;10.908;2024-03-07T15:29:08;8.10;99.90
1994;DHT22;998;49.906;10.908;2024-03-07T15:31:36;8.20;99.90
1994;DHT22;998;49.906;10.908;2024-03-07T15:34:03;8.20;99.90
1994;DHT22;998;49.906;10.908;2024-03-07T15:36:30;8.30;99.90
1994;DHT22;998;49.906;10.908;2024-03-07T15:38:58;8.20;99.90
1994;DHT22;998;49.906;10.908;2024-03-07T15:41:29;8.20;99.90
1994;DHT22;998;49.906;10.908;2024-03-07T15:43:59;7.80;99.90
1994;DHT22;998;49.906;10.908;2024-03-07T15:46:26;8.50;99.90
1994;DHT22;998;49.906;10.908;2024-03-07T15:48:54;8.20;99.90
1994;DHT22;998;49.906;10.908;2024-03-07T15:51:33;7.90;99.90
1994;DHT22;998;49.906;10.908;2024-03-07T15:54:01;8.10;99.90
1994;DHT22;998;49.906;10.908;2024-03-07T15:56:30;8.10;99.90
1994;DHT22;998;49.906;10.908;2024-03-07T15:58:59;8.10;99.90
1994;DHT22;998;49.906;10.908;2024-03-07T16:01:27;8.20;99.90
1994;DHT22;998;49.906;10.908;2024-03-07T16:03:54;8.10;99.90
1994;DHT22;998;49.906;10.908;2024-03-07T16:06:23;8.30;99.90
1994;DHT22;998;49.906;10.908;2024-03-07T16:08:50;8.10;99.90
1994;DHT22;998;49.906;10.908;2024-03-07T16:11:19;8.30;99.90
1994;DHT22;998;49.906;10.908;2024-03-07T16:13:52;8.20;99.90
1994;DHT22;998;49.906;10.908;2024-03-07T16:16:21;8.50;99.90
1994;DHT22;998;49.906;10.908;2024-03-07T16:18:51;8.10;99.90
1994;DHT22;998;49.906;10.908;2024-03-07T16:21:18;8.10;99.90
1994;DHT22;998;49.906;10.908;2024-03-07T16:23:46;8.10;99.90
1994;DHT22;998;49.906;10.908;2024-03-07T16:26:14;8.10;99.90
1994;DHT22;998;49.906;10.908;2024-03-07T16:28:43;8.10;99.90
1994;DHT22;998;49.906;10.908;2024-03-07T16:31:13;8.10;99.90
1994;DHT22;998;49.906;10.908;2024-03-07T16:33:44;8.60;99.90
1994;DHT22;998;49.906;10.908;2024-03-07T16:36:12;8.70;99.90
1994;DHT22;998;49.906;10.908;2024-03-07T16:38:41;8.10;99.90
1994;DHT22;998;49.906;10.908;2024-03-07T16:41:08;8.00;99.90